Terminal Aerodrome Forecast
Issued by NWS

Home | Current Version | Previous Version | Text Only | Print | Product List | Glossary On
Versions: 1 2 3 4 5 6 7 8 9 10 11 12 13
000
FTUS44 KHGX 131728
TAFUTS
TAF
KUTS 131728Z 1318/1418 20009KT P6SM BKN300
     FM140100 19005KT P6SM BKN300
     FM141600 25005KT P6SM FEW100 OVC250=

USA.gov is the U.S. government's official web portal to all federal, state and local government web resources and services.